Login
Access
Login with your mtb-forum.it nickname and password.


You do not have an account? Sign up here for free

mdelcarlo

Last training unit 16/06/2019
1
Followers
36 152 Km
itineraries
288 389 m
of total vertical gain
1582
hours of riding
22.72 Km/h
average speed
143
average HR


16/06/2019 Show to everybody Giro con il grande Graziano 66.31 Km 1015 m 03:41:40 17.95 Km\h Giant
15/06/2019 Show to everybody Giro mattutino 85.96 Km 62 m 03:32:55 24.22 Km\h Giant
11/06/2019 Show to everybody Giro con Fabrizio e Marco 99.33 Km 1748 m 04:43:12 21.04 Km\h Giant
09/06/2019 Show to everybody Giro mattutino 85.06 Km 122 m 03:12:37 26.5 Km\h Giant
08/06/2019 Show to everybody Giro mattutino 99.02 Km 1764 m 04:46:46 20.72 Km\h Giant
05/06/2019 Show to everybody Giro mattutino 89.75 Km 1603 m 04:26:53 20.18 Km\h Giant
02/06/2019 Show to everybody Giro mattutino 101.76 Km 92 m 03:55:05 25.97 Km\h Giant
01/06/2019 Show to everybody Giro con Adriano Bruna Flavio Giacomo eSilvia 98.7 Km 181 m 03:54:23 25.27 Km\h Giant
30/05/2019 Show to everybody Giro con Marco e Mauro 110.58 Km 133 m 04:19:34 25.56 Km\h Giant
11/05/2019 Show to everybody Giro mattutino 58.96 Km 1077 m 03:00:33 19.59 Km\h Giant
09/05/2019 Show to everybody Giro mattutino 84.35 Km 77 m 03:11:04 26.49 Km\h Giant
06/05/2019 Show to everybody Giro con Beppe e Marco 111.16 Km 2465 m 05:45:31 19.3 Km\h Giant
01/05/2019 Show to everybody Giro mattutino 102.98 Km 126 m 04:29:52 22.9 Km\h Giant
30/04/2019 Show to everybody Giro a Sesto Calende con Francesco e Marco 159.94 Km 299 m 06:16:17 25.5 Km\h Giant
28/04/2019 Show to everybody Gita al ghisallo con Gs Naviglio 35.39 Km 613 m 01:43:57 20.43 Km\h Giant
27/04/2019 Show to everybody Passeggiata solitaria al penice 55.33 Km 1050 m 02:46:20 19.96 Km\h Giant
25/04/2019 Show to everybody Monte Barro con Marco e Silvano 85.47 Km 1425 m 04:05:56 20.85 Km\h Giant
20/04/2019 Show to everybody Giro con Giancarlo e Gs Scoiattoli 102.52 Km 1028 m 04:17:15 23.91 Km\h Giant
17/04/2019 Show to everybody Nibbiano zavatarello Penice con Katia,Marco e Mauro 73.37 Km 1660 m 03:58:25 18.46 Km\h Giant
17/04/2019 Show to everybody Nibbiano zavatarello Penice con Katia,Marco e Mauro 73.37 Km 1660 m 03:58:25 18.46 Km\h Giant
15/04/2019 Show to everybody Giro mattutino 116.76 Km 165 m 04:48:56 24.25 Km\h Giant
15/04/2019 Show to everybody Giro mattutino 116.76 Km 165 m 04:48:56 24.25 Km\h Giant
13/04/2019 Show to everybody Giro mattutino 58.73 Km 1000 m 03:07:18 18.81 Km\h Giant
10/04/2019 Show to everybody Giro mattutino 94.73 Km 42 m 03:52:14 24.47 Km\h Giant
08/04/2019 Show to everybody Giro con Katia,Carmelo,Francesco e Marco 86.66 Km 1915 m 04:51:44 17.82 Km\h Giant
05/04/2019 Show to everybody Giro mattutino 105.08 Km 92 m 04:16:50 24.55 Km\h Giant
02/04/2019 Show to everybody Giro con Giuseppe, Francesco,Katia e Marco 72.12 Km 1422 m 03:46:02 19.14 Km\h Giant
31/03/2019 Show to everybody Giro mattutino 86.07 Km 100 m 03:29:05 24.7 Km\h Giant
30/03/2019 Show to everybody Giro con il proff Fabrizio e il grande Bali X la tenacia 110.65 Km 2222 m 05:20:29 20.72 Km\h Giant
29/03/2019 Show to everybody Giro mattutino 76.03 Km 51 m 03:05:35 24.58 Km\h Giant
27/03/2019 Show to everybody Giro con Katia ,Marco e Mauro 66.17 Km 1287 m 03:21:34 19.7 Km\h Giant
24/03/2019 Show to everybody Randogaina 123.99 Km 198 m 04:20:05 28.6 Km\h Giant
22/03/2019 Show to everybody Giro mattutino 120.8 Km 267 m 05:12:17 23.21 Km\h Giant
20/03/2019 Show to everybody Primo giro dopo bronchite😫😫 83.36 Km 104 m 03:45:12 22.21 Km\h Giant
10/03/2019 Show to everybody Gran Milan 119.35 Km 939 m 04:44:17 25.19 Km\h Giant
05/03/2019 Show to everybody Giro mattutino 88.34 Km 98 m 03:51:36 22.89 Km\h Giant
03/03/2019 Show to everybody Giro con Silvia, Daniele,Giampiero eMarco 92.64 Km 609 m 03:40:18 25.23 Km\h Giant
02/03/2019 Show to everybody Giro mattutino 74.44 Km 45 m 03:04:55 24.15 Km\h Giant
28/02/2019 Show to everybody Giro con Beppe e Marco con recupero Marco disperso sul lago 69.46 Km 1576 m 03:45:25 18.49 Km\h Giant
24/02/2019 Show to everybody Cassirando 125.83 Km 682 m 04:20:14 29.01 Km\h Giant
23/02/2019 Show to everybody Giro mattutino 74.39 Km 83 m 03:19:03 22.42 Km\h Giant
20/02/2019 Show to everybody Giro in Oltrepo con Marco 66.09 Km 1070 m 03:07:05 21.2 Km\h Giant
19/02/2019 Show to everybody Sgambatina con pit stop X cambio catena 70.71 Km 60 m 02:53:49 24.41 Km\h Giant
17/02/2019 Show to everybody Giro lago maggiore 163.53 Km 774 m 05:41:14 28.75 Km\h Giant
13/02/2019 Show to everybody Albaredo Ruino e ritorno con Beppe e marco 58.45 Km 1105 m 02:41:30 21.71 Km\h Giant
11/02/2019 Show to everybody Giro mattutino 108.27 Km 109 m 04:43:21 22.93 Km\h Giant
09/02/2019 Show to everybody Giro mattutino 86.05 Km 93 m 03:33:18 24.2 Km\h Giant
07/02/2019 Show to everybody Giro mattutino 76.75 Km 67 m 03:21:15 22.88 Km\h Giant
05/02/2019 Show to everybody Giro mattutino 72.33 Km 62 m 03:01:44 23.88 Km\h Giant
04/02/2019 Show to everybody Giro mattutino 77.28 Km 46 m 03:16:33 23.59 Km\h Giant
29/01/2019 Show to everybody Giro mattutino 67.8 Km 41 m 03:12:45 21.11 Km\h Giant
26/01/2019 Show to everybody Giro mattutino 90.07 Km 120 m 03:22:00 26.75 Km\h Giant
22/01/2019 Show to everybody Giro mattutino 71.78 Km 44 m 03:01:44 23.7 Km\h Giant
20/01/2019 Show to everybody Giro mattutino 83.46 Km 80 m 03:11:11 26.19 Km\h Giant
19/01/2019 Show to everybody Giro mattutino 71.2 Km 53 m 02:46:07 25.72 Km\h Giant
15/01/2019 Show to everybody Giro mattutino 73.46 Km 50 m 03:33:27 20.65 Km\h Giant
13/01/2019 Show to everybody Giro mattutino 74.64 Km 75 m 03:08:05 23.81 Km\h Giant
12/01/2019 Show to everybody Giro mattutino 72.11 Km 61 m 03:04:24 23.46 Km\h Giant
06/01/2019 Show to everybody Giro mattutino 84.94 Km 126 m 03:23:13 25.08 Km\h Giant
05/01/2019 Show to everybody Giro mattutino 72.4 Km 78 m 03:03:25 23.68 Km\h Giant
03/01/2019 Show to everybody Giro mattutino 85.65 Km 84 m 03:34:58 23.91 Km\h Giant
01/01/2019 Show to everybody Primo giro, prima salita 2019 67.08 Km 345 m 02:52:29 23.34 Km\h Giant
29/12/2018 Show to everybody Giro mattutino 80.02 Km 79 m 03:32:44 22.57 Km\h Giant
08/12/2018 Show to everybody Pedala con i campioni 45.44 Km 516 m 01:58:36 22.99 Km\h Giant
05/12/2018 Show to everybody Giro pomeridiano 75.49 Km 82 m 03:02:51 24.77 Km\h Giant
01/12/2018 Show to everybody Giro mattutino 74.71 Km 719 m 03:07:22 23.92 Km\h Giant
29/11/2018 Show to everybody 76.37 Km 74 m 03:17:30 23.2 Km\h Giant
27/11/2018 Show to everybody Giro mattutino 93.42 Km 92 m 03:57:17 23.62 Km\h Giant
22/11/2018 Show to everybody Giro mattutino 100.84 Km 115 m 04:25:24 22.8 Km\h Giant
18/11/2018 Show to everybody Giro mattutino 78.33 Km 56 m 03:24:11 23.02 Km\h Giant
17/11/2018 Show to everybody Giro in compagnia 66.34 Km 1086 m 03:03:46 21.66 Km\h Giant
15/11/2018 Show to everybody Giro mattutino 97.8 Km 81 m 03:55:55 24.87 Km\h Giant
13/11/2018 Show to everybody Giro sempre con Garmin con problemi 69.96 Km 1107 m 03:06:55 22.46 Km\h Giant
11/11/2018 Show to everybody Giro mattutino 0.57 Km 1 m 00:01:50 18.7 Km\h Giant
11/11/2018 Show to everybody Garmin impazzito km reali 75 74.37 Km 66 m 02:23:16 31.15 Km\h Giant
11/11/2018 Show to everybody Giro mattutino 67.59 Km 45 m 02:42:12 25 Km\h Giant
06/11/2018 Show to everybody Giro corto causa pioggia 38.2 Km 353 m 01:36:16 23.81 Km\h Giant
03/11/2018 Show to everybody Giro con Gs scoiattoli 66.01 Km 681 m 02:56:14 22.47 Km\h Giant
25/10/2018 Show to everybody Giro pomeridiano 95.57 Km 112 m 03:53:24 24.57 Km\h Giant
23/10/2018 Show to everybody Al balcone d’Italia con Giacomo 80.19 Km 1587 m 04:05:59 19.56 Km\h Giant
21/10/2018 Show to everybody Randonee le foglie morte 100.28 Km 315 m 03:25:32 29.27 Km\h Giant
20/10/2018 Show to everybody Giro mattutino 53.41 Km 947 m 02:38:17 20.25 Km\h Giant
16/10/2018 Show to everybody Giro mattutino 96.73 Km 65 m 03:46:37 25.61 Km\h Giant
14/10/2018 Show to everybody Passeggiata con Silvia 126.17 Km 155 m 05:36:55 22.47 Km\h Giant
13/10/2018 Show to everybody Giro mattutino 65.34 Km 1223 m 03:01:01 21.66 Km\h Giant
09/10/2018 Show to everybody Giro mattutino 98.46 Km 113 m 03:57:05 24.92 Km\h Giant
07/10/2018 Show to everybody Passeggiata 83.44 Km 138 m 03:51:59 21.58 Km\h Giant
07/10/2018 Show to everybody Passeggiata 83.44 Km 138 m 03:51:59 21.58 Km\h Giant
06/10/2018 Show to everybody Giro con Silvia, Silvano e Giovanni 86.55 Km 79 m 03:37:59 23.82 Km\h Giant
06/10/2018 Show to everybody Giro con Silvia, Silvano e Giovanni 86.55 Km 79 m 03:37:59 23.82 Km\h Giant
06/10/2018 Show to everybody Giro con Silvia, Silvano e Giovanni 86.55 Km 79 m 03:37:59 23.82 Km\h Giant
04/10/2018 Show to everybody Giro mattutino 113.45 Km 125 m 04:35:05 24.74 Km\h Giant
02/10/2018 Show to everybody Erba colma Sormano Nesso Bellagio Valbrona con Giacomo 73.84 Km 1403 m 03:30:15 21.07 Km\h Giant
30/09/2018 Show to everybody Giro mattutino 16.19 Km 45 m 00:40:41 23.88 Km\h Giant
27/09/2018 Show to everybody Giro mattutino 110.33 Km 95 m 04:46:33 23.1 Km\h Giant
23/09/2018 Show to everybody Gf Casteggio 89.8 Km 1499 m 04:08:43 21.66 Km\h Giant
23/09/2018 Show to everybody Gf Casteggio 89.8 Km 1499 m 04:08:43 21.66 Km\h Giant
20/09/2018 Show to everybody Giro mattutino 114.54 Km 105 m 04:39:16 24.61 Km\h Giant
18/09/2018 Show to everybody Giro con Giacomo e Carmelo in Oltrepo 60.78 Km 1161 m 02:52:21 21.16 Km\h Giant
16/09/2018 Show to everybody Giro con Dani e Marco 52.57 Km 1123 m 02:38:31 19.9 Km\h Giant
15/09/2018 Show to everybody Giro mattutino 131.22 Km 407 m 05:10:36 25.35 Km\h Giant
13/09/2018 Show to everybody Giro pomeridiano 94.22 Km 96 m 03:56:09 23.94 Km\h Giant
08/09/2018 Show to everybody Giro con Bali al balcone d’Italia 80.19 Km 1512 m 04:04:10 19.7 Km\h Giant
06/09/2018 Show to everybody Giro mattutino 74.97 Km 58 m 03:10:35 23.6 Km\h Giant
06/09/2018 Show to everybody Giro pomeridiano 84.64 Km 71 m 03:27:35 24.47 Km\h Giant
04/09/2018 Show to everybody Giro mattutino 120.26 Km 186 m 04:50:38 24.83 Km\h Giant
02/09/2018 Show to everybody Giro mattutino 101.14 Km 149 m 04:02:07 25.06 Km\h Giant
30/08/2018 Show to everybody Giro nella bergamasca con Silvano 92.08 Km 1776 m 04:39:32 19.76 Km\h Giant
28/08/2018 Show to everybody Giro mattutino 117.24 Km 99 m 04:41:26 24.99 Km\h Giant
26/08/2018 Show to everybody Giro mattutino 85.4 Km 70 m 03:37:21 23.57 Km\h Giant
22/08/2018 Show to everybody Giro con Giuseppe 52.63 Km 1116 m 02:41:14 19.58 Km\h Giant
16/08/2018 Show to everybody Randagiata solitaria in Appennino 104.76 Km 1627 m 05:04:02 20.67 Km\h Giant
14/08/2018 Show to everybody Giro con Andrea e Giancarlo 80.42 Km 1123 m 03:39:32 21.98 Km\h Giant
11/08/2018 Show to everybody Giro in Appennino con Gs scoiattoli 83.88 Km 1480 m 03:57:01 21.23 Km\h Giant
08/08/2018 Show to everybody Giro con Giancarlo in Appennino 87.32 Km 872 m 03:47:26 23.04 Km\h Giant
04/08/2018 Show to everybody Giro con Beppe,Gio,Giampiero e Fabrizio 102.45 Km 108 m 03:49:48 26.75 Km\h Giant
02/08/2018 Show to everybody Giro mattutino 68.86 Km 1235 m 03:34:37 19.25 Km\h Giant
31/07/2018 Show to everybody Giro in solitario 79.19 Km 47 m 03:08:49 25.16 Km\h Giant
28/07/2018 Show to everybody Giro mattutino 104.73 Km 104 m 04:03:08 25.85 Km\h Giant
26/07/2018 Show to everybody Giro con Annalisa e Dani 112.12 Km 168 m 04:37:19 24.26 Km\h Giant
22/07/2018 Show to everybody Test ginocchio 100.74 Km 68 m 04:19:05 23.33 Km\h Giant
15/07/2018 Show to everybody Giro con Gs Naviglio 107.01 Km 108 m 04:06:02 26.1 Km\h Giant
14/07/2018 Show to everybody Giro con Bali e Marco 72.41 Km 1364 m 03:37:06 20.01 Km\h Giant
12/07/2018 Show to everybody Giro con Annalisa e Pino lo scoppiato 78.91 Km 46 m 03:15:32 24.21 Km\h Giant
10/07/2018 Show to everybody Sgambatina con Marco 102.12 Km 76 m 03:50:24 26.59 Km\h Giant
08/07/2018 Show to everybody Gf Fausto Coppi ce l’ho fatta😱😱 108.2 Km 2490 m 06:43:38 16.08 Km\h Giant
03/07/2018 Show to everybody Giro mattutino 89.19 Km 59 m 03:43:42 23.92 Km\h Giant
01/07/2018 Show to everybody Giro mattutino 88.65 Km 1831 m 05:06:32 17.35 Km\h Giant
28/06/2018 Show to everybody Giro pomeridiano 92.94 Km 103 m 03:44:24 24.85 Km\h Giant
26/06/2018 Show to everybody Zjngarata solitaria 118.47 Km 84 m 04:37:14 25.64 Km\h Giant
23/06/2018 Show to everybody Sella Ronda Bike con Gs naviglio 81.23 Km 2223 m 05:02:45 16.1 Km\h Giant
21/06/2018 Show to everybody Giro pomeridiano 20.19 Km 221 m 00:53:44 22.55 Km\h Giant
19/06/2018 Show to everybody Giro mattutino 77.78 Km 67 m 03:13:56 24.06 Km\h Giant
17/06/2018 Show to everybody Gf lago Maggiore 82.37 Km 1520 m 04:03:22 20.31 Km\h Giant
16/06/2018 Show to everybody Giro mattutino 74.67 Km 57 m 03:13:49 23.12 Km\h Giant
14/06/2018 Show to everybody Giro pomeridiano 66.5 Km 109 m 02:26:14 27.29 Km\h Giant
10/06/2018 Show to everybody 100 Gobbe 109.16 Km 574 m 04:14:13 25.76 Km\h Giant
10/06/2018 Show to everybody 100 Gobbe 109.16 Km 574 m 04:14:13 25.76 Km\h Giant
09/06/2018 Show to everybody Giro mattutino 90.13 Km 88 m 03:57:53 22.73 Km\h Giant
07/06/2018 Show to everybody Giro con Silvia 99.01 Km 114 m 04:22:21 22.64 Km\h Giant
03/06/2018 Show to everybody Giro mattutino 61.62 Km 967 m 02:48:03 22 Km\h Giant
02/06/2018 Show to everybody Giro mattutino 55.21 Km 1035 m 02:37:57 20.97 Km\h Giant
27/05/2018 Show to everybody Giro con i grandi della Naviglio 56.02 Km 1026 m 03:04:58 18.17 Km\h Giant
26/05/2018 Show to everybody Giro mattutino 84.32 Km 72 m 03:27:06 24.43 Km\h Giant
20/05/2018 Show to everybody Nove colli con antibiotici e foratura hanno messo dei chiodið–)<`æ)<`æ) 132.1 Km 1998 m 06:12:14 21.29 Km\h Giant
12/05/2018 Show to everybody Giro mattutino 76.23 Km 1221 m 03:35:48 21.2 Km\h Giant
06/05/2018 Show to everybody Gf Gimondi 129.04 Km 2082 m 06:08:10 21.03 Km\h Giant
01/05/2018 Show to everybody Giro mattutino 66.41 Km 1340 m 03:33:06 18.7 Km\h Giant
30/04/2018 Show to everybody Giro mattutino 111.16 Km 112 m 04:15:34 26.1 Km\h Giant
28/04/2018 Show to everybody Giro mattutino 72.39 Km 1392 m 03:41:05 19.64 Km\h Giant
25/04/2018 Show to everybody Giro mattutino 83.02 Km 1451 m 04:05:43 20.27 Km\h Giant
22/04/2018 Show to everybody Giro mattutino 50.72 Km 919 m 02:21:25 21.52 Km\h Giant
21/04/2018 Show to everybody Giro con il Bali 54.32 Km 1098 m 02:50:01 19.17 Km\h Giant
15/04/2018 Show to everybody Gf Perini corto 58.64 Km 966 m 02:46:18 21.16 Km\h Giant
14/04/2018 Show to everybody Giro mattutino 74.44 Km 70 m 03:12:22 23.22 Km\h Giant
08/04/2018 Show to everybody Medio Fondo Gaggiano 108.7 Km 63 m 04:17:08 25.36 Km\h Giant
02/04/2018 Show to everybody Giro mattutino 79.37 Km 758 m 03:17:55 24.06 Km\h Giant
25/03/2018 Show to everybody Giro mattutino 87.25 Km 87 m 03:36:56 24.13 Km\h Giant
25/03/2018 Show to everybody Giro mattutino 87.25 Km 87 m 03:36:56 24.13 Km\h Giant
24/03/2018 Show to everybody Giro con Dario, Fabrizio e Francesco 53.56 Km 1331 m 03:18:41 16.18 Km\h Giant
22/03/2018 Show to everybody Giro in compagnia 81.47 Km 1193 m 04:14:52 19.18 Km\h Giant
18/02/2018 Show to everybody Mirando 109.41 Km 76 m 04:19:10 25.33 Km\h Giant
11/02/2018 Show to everybody Randonnée di Parabiago, anche oggi il Garmin dava i numeri 30 km in meno 96.94 Km 258 m 03:33:08 27.29 Km\h Giant
10/02/2018 Show to everybody Giro mattutino 7.88 Km 183 m 00:24:51 19.02 Km\h Giant
10/02/2018 Show to everybody Garmin con problemi km fatti 72 63.75 Km 1097 m 02:54:50 21.88 Km\h Giant
04/02/2018 Show to everybody Giro mattutino 68.43 Km 932 m 02:55:14 23.43 Km\h Giant
28/01/2018 Show to everybody Randomerla con Gs Naviglio 102.88 Km 715 m 03:44:21 27.51 Km\h Giant
21/01/2018 Show to everybody Giro di gruppo 101.11 Km 105 m 04:03:40 24.9 Km\h Giant
20/01/2018 Show to everybody Giro mattutino 107.27 Km 144 m 04:26:58 24.11 Km\h Giant
14/01/2018 Show to everybody Giro nella nebbia 77.44 Km 66 m 03:18:58 23.35 Km\h Giant
13/01/2018 Show to everybody Primo giro 2018 68.49 Km 923 m 03:07:34 21.91 Km\h Giant
31/12/2017 Show to everybody Felice 2018 82.18 Km 73 m 03:30:47 23.39 Km\h Giant
31/12/2017 Show to everybody Felice 2018 82.18 Km 73 m 03:30:47 23.39 Km\h Giant
30/12/2017 Show to everybody Giro mattutino 68.98 Km 923 m 03:02:22 22.69 Km\h Giant
24/12/2017 Show to everybody Buon Natale 74.57 Km 46 m 03:09:20 23.63 Km\h Giant
23/12/2017 Show to everybody Giro mattutino 74.97 Km 52 m 03:15:42 22.99 Km\h Giant
17/12/2017 Show to everybody Giro mattutino 74.65 Km 42 m 03:02:17 24.57 Km\h Giant
09/12/2017 Show to everybody Giro in modalità passeggiata 90.29 Km 786 m 04:11:35 21.53 Km\h Giant
07/12/2017 Show to everybody Giro mattutino 88.72 Km 84 m 03:41:01 24.09 Km\h Giant
03/12/2017 Show to everybody Giro mattutino 74.75 Km 60 m 03:08:34 23.78 Km\h Giant
19/11/2017 Show to everybody Giro mattutino 89.37 Km 87 m 03:43:51 23.95 Km\h Giant
18/11/2017 Show to everybody Ghisallo 71.16 Km 1120 m 03:12:22 22.2 Km\h Giant
14/11/2017 Show to everybody Giro mattutino 84.8 Km 49 m 03:20:49 25.34 Km\h Giant
12/11/2017 Show to everybody Giro mattutino 101.74 Km 121 m 03:56:31 25.81 Km\h Giant
11/11/2017 Show to everybody Giro al lago con Dario,Francesco,Marco e Silvia 71.73 Km 973 m 03:16:14 21.93 Km\h Giant
04/11/2017 Show to everybody Giro mattutino 77.33 Km 948 m 03:23:39 22.78 Km\h Giant
01/11/2017 Show to everybody Giro con Antonio e Daniele 72.59 Km 1445 m 03:29:00 20.84 Km\h Giant
28/10/2017 Show to everybody Valcava 49.45 Km 1236 m 02:41:38 18.36 Km\h Giant
26/10/2017 Show to everybody Milano sesto calende ciclabile del naviglio 139.52 Km 269 m 05:13:07 26.74 Km\h Giant
24/10/2017 Show to everybody Giro mattutino 88.15 Km 83 m 03:49:07 23.08 Km\h Giant
21/10/2017 Show to everybody Giro lago di Lugano 68.05 Km 454 m 02:44:05 24.88 Km\h Giant
19/10/2017 Show to everybody Giro mattutino 87.23 Km 77 m 03:27:06 25.27 Km\h Giant
17/10/2017 Show to everybody Nibbiano Penice Varzi Pietrgravina Zavstarello Nibbiano 65.96 Km 1331 m 03:22:02 19.59 Km\h Giant
15/10/2017 Show to everybody Giro mattutino con gs Naviglio 101.79 Km 181 m 03:51:04 26.43 Km\h Giant
14/10/2017 Show to everybody Giro mattutino 78.18 Km 1494 m 04:00:23 19.51 Km\h Giant
12/10/2017 Show to everybody Giro pomeridiano con Dario e Giacomo 44.35 Km 867 m 02:06:00 21.12 Km\h Giant
08/10/2017 Show to everybody Giro con Gs Naviglio 97.07 Km 92 m 04:08:27 23.44 Km\h Giant
07/10/2017 Show to everybody Bellissima giornata in compagnia di Daniele, Giuseppe,Lorenzo,Francesco e Marco 88.86 Km 1990 m 04:54:00 18.13 Km\h Giant
05/10/2017 Show to everybody È sempre un bel giro in compagnia di Dani,Francesco,Luigi,Marco eRoberto 73 Km 1396 m 03:29:22 20.92 Km\h Giant
30/09/2017 Show to everybody Giro mattutino 110.61 Km 130 m 04:12:43 26.26 Km\h Giant
28/09/2017 Show to everybody Giro in Oltrepo fatto con le scarpe da corsa insieme aDani e Marco 78.11 Km 1351 m 03:52:07 20.19 Km\h Giant
24/09/2017 Show to everybody Giro mattutino 98.07 Km 179 m 03:42:50 26.41 Km\h Giant
21/09/2017 Show to everybody Giro mattutino 92.68 Km 91 m 03:54:18 23.73 Km\h Giant
19/09/2017 Show to everybody Giro mattutino 107.11 Km 125 m 04:39:51 22.96 Km\h Giant
17/09/2017 Show to everybody Gf Milano 101.63 Km 922 m 03:28:15 29.28 Km\h Giant
09/09/2017 Show to everybody Broni Penice in compagnia 102.2 Km 2126 m 04:45:15 21.5 Km\h Giant
07/09/2017 Show to everybody Giro con Carlo e Giacomo 75.36 Km 1251 m 03:48:30 19.79 Km\h Giant
05/09/2017 Show to everybody Giro mattutino 93.69 Km 116 m 03:44:55 24.99 Km\h Giant
03/09/2017 Show to everybody Giro a Turbigo recuperando il gruppo 118.08 Km 194 m 04:34:10 25.84 Km\h Giant
31/08/2017 Show to everybody Nibbiano Monte Penice con Francesco eLuigi 66.26 Km 1275 m 03:17:14 20.16 Km\h Giant
27/08/2017 Show to everybody Giro lago di Como con Marco,Giampiero e gli amici gs Borgomanero 165.7 Km 1105 m 06:04:58 27.24 Km\h Giant
24/08/2017 Show to everybody Giro a Turbigo in compagnia 127.07 Km 223 m 04:50:53 26.21 Km\h Giant
22/08/2017 Show to everybody Giro con Donzi e Giampiero 73.48 Km 1359 m 03:24:56 21.51 Km\h Giant
20/08/2017 Show to everybody Giro mattutino con gs naviglio 130.71 Km 150 m 05:04:22 25.77 Km\h Giant
19/08/2017 Show to everybody Boffalora con Giampiero e Silvia 98.47 Km 127 m 03:58:42 24.75 Km\h Giant
18/08/2017 Show to everybody Morimondo con Giampiero 71 Km 70 m 02:56:42 24.11 Km\h Giant
14/08/2017 Show to everybody Giro mattutino con Giancarlo 80.68 Km 1120 m 03:46:55 21.33 Km\h Giant
12/08/2017 Show to everybody Giro a zocca con Giancarlo 94.66 Km 1213 m 04:07:11 22.98 Km\h Giant
09/08/2017 Show to everybody Monte Cimone con Giancarlo 90.22 Km 1850 m 04:40:53 19.27 Km\h Giant
07/08/2017 Show to everybody Giro con Giancarlo e Michele 107.34 Km 1572 m 04:57:20 21.66 Km\h Giant
03/08/2017 Show to everybody Giro con Giancarlo 101.75 Km 1715 m 05:04:46 20.03 Km\h Giant
31/07/2017 Show to everybody Su e giù X l`Appennino modenese in solitario 125.5 Km 1835 m 05:50:38 21.48 Km\h Giant
29/07/2017 Show to everybody Giro in Appennino con gs scoiattoli 116.5 Km 1503 m 04:57:56 23.46 Km\h Giant
27/07/2017 Show to everybody Giro in oltrepo con Giacomo 66.11 Km 805 m 03:01:58 21.8 Km\h Giant
25/07/2017 Show to everybody Giro mattutino 91.65 Km 103 m 03:44:45 24.47 Km\h Giant
22/07/2017 Show to everybody Selvino culmine San Pietro e ritorno 106.98 Km 2296 m 05:34:12 19.21 Km\h Giant
20/07/2017 Show to everybody Il cardio da i numerið–,|`æ, 100.43 Km 99 m 03:58:04 25.31 Km\h Giant
18/07/2017 Show to everybody Giro mattutino 79.98 Km 1164 m 03:46:02 21.23 Km\h Giant
16/07/2017 Show to everybody Giro mattutino 102.47 Km 130 m 03:58:46 25.75 Km\h Giant
15/07/2017 Show to everybody Giro mattutino 74.02 Km 1540 m 03:37:06 20.46 Km\h Giant
13/07/2017 Show to everybody Giro mattutino 95.7 Km 75 m 03:49:50 24.98 Km\h Giant
11/07/2017 Show to everybody Giro in Brianza con Giacomo e Marco 84.06 Km 1154 m 03:37:09 23.23 Km\h Giant
09/07/2017 Show to everybody Giro mattutino con gs naviglio 97.53 Km 158 m 03:48:41 25.59 Km\h Giant
08/07/2017 Show to everybody Passo San Marco 82.47 Km 1702 m 04:26:51 18.54 Km\h Giant
06/07/2017 Show to everybody Erba Colma Di Sormano. Bellagio Valbrona con Giacomo 73.45 Km 1379 m 03:45:00 19.59 Km\h Giant
04/07/2017 Show to everybody Giro mattutino 108.44 Km 114 m 04:27:57 24.28 Km\h Giant
02/07/2017 Show to everybody Milano Montalto con i the best 136.2 Km 553 m 05:06:43 26.64 Km\h Giant
01/07/2017 Show to everybody Ambria passo Zambla selvino con Luigi e Marco 82.99 Km 1594 m 03:59:51 20.76 Km\h Giant
26/06/2017 Show to everybody Sella Ronda con gs naviglio 86.14 Km 2516 m 05:09:31 16.7 Km\h Giant
24/06/2017 Show to everybody Pera di Fassa passo Fedaia Malga Ciapela e ritorno con Luigi 57.78 Km 1377 m 03:30:48 16.45 Km\h Giant
20/06/2017 Show to everybody Sgambata con super Nello 77.79 Km 82 m 03:11:26 24.38 Km\h Giant
18/06/2017 Show to everybody Giro in solitario controvento 67.35 Km 343 m 02:48:39 23.96 Km\h Giant
17/06/2017 Show to everybody Giro mattutino 69.62 Km 1215 m 03:16:34 21.25 Km\h Giant
15/06/2017 Show to everybody Penice con Marco 98.48 Km 1777 m 04:59:01 19.76 Km\h Giant
13/06/2017 Show to everybody Giro mattutino con gruppo misto 90.12 Km 76 m 03:41:34 24.41 Km\h Giant
11/06/2017 Show to everybody Giro mattutino con Gs naviglio 94.49 Km 103 m 03:26:12 27.49 Km\h Giant
10/06/2017 Show to everybody Rifatto con Dario,Francesco e Marco 73.9 Km 1541 m 03:43:21 19.85 Km\h Giant
08/06/2017 Show to everybody Ghisallo e colma da Nesso con Claudio,Giuseppe e Luigi 73.97 Km 1560 m 03:43:13 19.88 Km\h Giant
04/06/2017 Show to everybody 100 Gobbe 108.85 Km 553 m 03:57:16 27.53 Km\h Giant
02/06/2017 Show to everybody Giro mattutino con gs naviglio 100.96 Km 166 m 04:10:28 24.19 Km\h Giant
01/06/2017 Show to everybody Nibbiano antenne Penice con Luigi e Fabrizio 76.74 Km 1556 m 04:10:41 18.37 Km\h Giant
28/05/2017 Show to everybody Giro mattutino con gs Naviglio 113.02 Km 139 m 04:18:38 26.22 Km\h Giant
27/05/2017 Show to everybody Colma di Sormano, Nesso,Bellagio, Valbrona 72.46 Km 1343 m 03:26:32 21.05 Km\h Giant
24/05/2017 Show to everybody Giro ignorante 157.82 Km 210 m 06:32:06 24.15 Km\h Giant
21/05/2017 Show to everybody Nove colli 133.13 Km 1998 m 05:59:48 22.2 Km\h Giant
16/05/2017 Show to everybody Giro con Pino e Piero 69.15 Km 74 m 02:57:36 23.36 Km\h Giant
14/05/2017 Show to everybody Gf Novara corto 124.59 Km 775 m 04:33:44 27.31 Km\h Giant
13/05/2017 Show to everybody Giro mattutino 95.76 Km 137 m 04:01:46 23.77 Km\h Giant
09/05/2017 Show to everybody Giro del trio meravigliao 92.59 Km 99 m 03:43:19 24.88 Km\h Giant
07/05/2017 Show to everybody Gran bel giro 117.35 Km 1741 m 05:47:41 20.25 Km\h Giant
06/05/2017 Show to everybody Giro mattutino 98.36 Km 123 m 04:02:38 24.32 Km\h Giant
03/05/2017 Show to everybody Giro con Fabrizio 40.62 Km 871 m 02:10:33 18.67 Km\h Giant
30/04/2017 Show to everybody 77.09 Km 1064 m 03:36:38 21.35 Km\h Giant
29/04/2017 Show to everybody Giro mattutino in compagnia 102.3 Km 133 m 04:16:26 23.93 Km\h Giant
22/04/2017 Show to everybody Giro con gs scoiattoli 87.23 Km 1093 m 03:39:30 23.84 Km\h Giant
17/04/2017 Show to everybody Giro mattutino 61.65 Km 658 m 02:33:24 24.12 Km\h Giant
15/04/2017 Show to everybody Giro mattutino 102.71 Km 1164 m 04:22:43 23.46 Km\h Giant
13/04/2017 Show to everybody Giro mattutino 122.3 Km 857 m 05:39:58 21.59 Km\h Giant
11/04/2017 Show to everybody Monte Penice in compagnia di Marco 101.03 Km 1858 m 05:08:31 19.65 Km\h Giant
09/04/2017 Show to everybody Ciclo turistica Gaggiano con deviazione 105.35 Km 58 m 03:47:50 27.74 Km\h Giant
08/04/2017 Show to everybody Giro mattutino in compagnia 91.37 Km 116 m 03:35:59 25.38 Km\h Giant
06/04/2017 Show to everybody Giro mattutino 97.66 Km 117 m 03:42:48 26.3 Km\h Giant
04/04/2017 Show to everybody Giro mattutino 80.49 Km 1010 m 03:33:35 22.61 Km\h Giant
01/04/2017 Show to everybody Penice con i soliti 87.23 Km 1567 m 04:23:36 19.86 Km\h Giant
25/03/2017 Show to everybody Giro da valle scuro passo in compagnia 61.89 Km 728 m 02:49:21 21.93 Km\h Giant
19/03/2017 Show to everybody Giro con vento contrario 96.01 Km 158 m 03:45:36 25.54 Km\h Giant
12/03/2017 Show to everybody Giro in compagnia di donzi 124.39 Km 189 m 04:58:54 24.97 Km\h Giant
11/03/2017 Show to everybody Giro mattutino 71.32 Km 1243 m 03:35:20 19.87 Km\h Giant
09/03/2017 Show to everybody Giro con silvia potenziamento 54.95 Km 1014 m 03:03:27 17.97 Km\h Giant
05/03/2017 Show to everybody Prime salite 72.57 Km 882 m 03:25:14 21.21 Km\h Giant
26/02/2017 Show to everybody Giro con gruppo 101.28 Km 145 m 03:55:49 25.77 Km\h Giant
19/02/2017 Show to everybody MIRANDO MILANO 100Km 102.12 Km 116 m 03:55:10 26.05 Km\h Giant
18/02/2017 Show to everybody Morimondo in compagnia 77.62 Km 77 m 03:38:09 21.35 Km\h Giant
11/02/2017 Show to everybody Partiti per una sgambatina 100.71 Km 117 m 03:43:40 27.02 Km\h Giant
05/02/2017 Show to everybody Giro sotto la pioggia col grande Antonio 78.03 Km 84 m 03:34:13 21.86 Km\h Giant
29/01/2017 Show to everybody Aumentano i km 95.32 Km 135 m 03:55:15 24.31 Km\h Giant
22/01/2017 Show to everybody Giro mattutino 75.85 Km 123 m 03:14:18 23.42 Km\h Giant
21/01/2017 Show to everybody Giro mattutino 61.38 Km 82 m 02:31:03 24.38 Km\h Giant
15/01/2017 Show to everybody Giro mattutino 64.15 Km 80 m 02:32:39 25.22 Km\h Giant
08/01/2017 Show to everybody Giro mattutino 60.56 Km 98 m 02:28:46 24.43 Km\h Giant
06/01/2017 Show to everybody Giro dopo 3 mesi e mezzo di fermo 73.05 Km 76 m 03:21:37 21.74 Km\h Giant
25/09/2016 Show to everybody Giro mattutino 102.55 Km 150 m 03:59:11 25.72 Km\h Giant
17/09/2016 Show to everybody Giro mattutino 108.9 Km 1246 m 04:19:00 25.23 Km\h Giant
11/09/2016 Show to everybody Orta Mottarone 63.84 Km 1317 m 03:23:47 18.8 Km\h Giant
04/09/2016 Show to everybody Giro mattutino 115.53 Km 138 m 04:23:51 26.27 Km\h Giant
03/09/2016 Show to everybody Al posto delle barrette 61.75 Km 1139 m 02:53:27 21.36 Km\h Giant
28/08/2016 Show to everybody Giro mattutino 72.42 Km 75 m 02:57:57 24.42 Km\h Giant
27/08/2016 Show to everybody Passo dello Stelvio 56.63 Km 1533 m 03:26:39 16.44 Km\h Giant
24/08/2016 Show to everybody Giro serale 59.39 Km 45 m 02:07:46 27.89 Km\h Giant
23/08/2016 Show to everybody Sgambatina in solitario 106.07 Km 1150 m 04:36:54 22.98 Km\h Giant
20/08/2016 Show to everybody Giro mattutino 95.29 Km 1091 m 04:08:09 23.04 Km\h Giant
18/08/2016 Show to everybody Giro mattutino 99.79 Km 2311 m 05:04:33 19.66 Km\h Giant
13/08/2016 Show to everybody Giro mattutino 105.47 Km 2111 m 05:36:27 18.81 Km\h Giant
11/08/2016 Show to everybody Giro con vento contro che p.... 104.93 Km 1070 m 04:30:00 23.32 Km\h Giant
09/08/2016 Show to everybody Giro mattutino 83.37 Km 991 m 03:35:55 23.17 Km\h Giant
09/08/2016 Show to everybody Giro mattutino 83.37 Km 991 m 03:35:55 23.17 Km\h Giant
07/08/2016 Show to everybody Giro mattutino 87.93 Km 120 m 03:37:46 24.23 Km\h Giant
06/08/2016 Show to everybody Giro mattutino 79.82 Km 1027 m 03:18:02 24.18 Km\h Giant
04/08/2016 Show to everybody Giro pomeridiano 88.26 Km 113 m 03:22:26 26.16 Km\h Giant
02/08/2016 Show to everybody Giro mattutino 87.64 Km 1089 m 03:54:41 22.41 Km\h Giant
01/08/2016 Show to everybody Giro mattutino 78.03 Km 1532 m 04:20:59 17.94 Km\h Giant
30/07/2016 Show to everybody Giro mattutino 111.38 Km 1896 m 05:25:18 20.54 Km\h Giant
24/07/2016 Show to everybody Giro mattutino 104.08 Km 168 m 04:07:52 25.2 Km\h Giant
23/07/2016 Show to everybody Giro mattutino 63.9 Km 1211 m 03:12:25 19.92 Km\h Giant
17/07/2016 Show to everybody Giro mattutino 128.71 Km 573 m 04:58:17 25.89 Km\h Giant
10/07/2016 Show to everybody Giro mattutino 53.14 Km 1128 m 03:05:08 17.22 Km\h Giant
09/07/2016 Show to everybody Giro mattutino 82.78 Km 114 m 03:35:57 23 Km\h Giant
07/07/2016 Show to everybody Passo San Marco in compagnia 77.74 Km 1666 m 04:30:32 17.24 Km\h Giant
03/07/2016 Show to everybody Giro mattutino 71.97 Km 155 m 02:42:44 26.53 Km\h Giant
02/07/2016 Show to everybody Giro mattutino 88.45 Km 1566 m 04:18:37 20.52 Km\h Giant
26/06/2016 Show to everybody Giro mattutino 73.31 Km 1531 m 03:52:21 18.93 Km\h Giant
23/06/2016 Show to everybody Giro serale 48.01 Km 39 m 01:39:08 29.06 Km\h Giant
12/06/2016 Show to everybody Giro mattutino 96.64 Km 1600 m 04:56:36 19.55 Km\h Giant
05/06/2016 Show to everybody Giro mattutino 109.25 Km 580 m 04:09:05 26.32 Km\h Giant
04/06/2016 Show to everybody Giro mattutino 83.26 Km 1010 m 03:45:20 22.17 Km\h Giant
22/05/2016 Show to everybody Giro mattutino 133.29 Km 1911 m 06:11:24 21.53 Km\h Giant
15/05/2016 Show to everybody Giro mattutino 130.46 Km 1296 m 05:49:12 22.42 Km\h Giant
08/05/2016 Show to everybody Giro mattutino 99.27 Km 2340 m 06:04:26 16.34 Km\h Giant
08/05/2016 Show to everybody Giro mattutino 1.42 Km 4 m 00:03:32 24.17 Km\h Giant
30/04/2016 Show to everybody Giro mattutino 61.41 Km 1142 m 02:53:49 21.2 Km\h Giant
25/04/2016 Show to everybody Giro mattutino 83.34 Km 134 m 03:42:16 22.5 Km\h Giant
24/04/2016 Show to everybody Giro mattutino 118.46 Km 1977 m 06:12:43 19.07 Km\h Giant
16/04/2016 Show to everybody Giro mattutino 112.02 Km 1622 m 05:20:44 20.96 Km\h Giant
10/04/2016 Show to everybody Giro mattutino 128.67 Km 418 m 04:59:53 25.74 Km\h Giant
03/04/2016 Show to everybody Giro mattutino 123.74 Km 169 m 04:46:36 25.91 Km\h Giant
02/04/2016 Show to everybody Giro mattutino 91.18 Km 864 m 04:16:30 21.33 Km\h Giant
28/03/2016 Show to everybody Giro mattutino 78.64 Km 705 m 03:17:26 23.9 Km\h Giant
20/03/2016 Show to everybody Giro mattutino 93.51 Km 135 m 03:46:55 24.72 Km\h Giant
19/03/2016 Show to everybody Giro mattutino 139.91 Km 691 m 05:59:08 23.37 Km\h Giant
13/03/2016 Show to everybody Giro pomeridiano 101 Km 84 m 04:07:52 24.45 Km\h Giant
13/02/2016 Show to everybody Giro mattutino 54.89 Km 956 m 02:49:30 19.43 Km\h Giant
31/01/2016 Show to everybody Giro mattutino 66.73 Km 1086 m 03:20:23 19.98 Km\h Giant
24/01/2016 Show to everybody Giro mattutino 50.94 Km 934 m 02:31:48 20.13 Km\h Giant
10/01/2016 Show to everybody Giro mattutino 46.35 Km 748 m 02:25:50 19.07 Km\h Giant
08/01/2016 Show to everybody Giro mattutino 75.33 Km 51 m 03:23:33 22.2 Km\h Giant
06/01/2016 Show to everybody Giro mattutino 73.19 Km 56 m 03:12:46 22.78 Km\h Giant
03/01/2016 Show to everybody Giro mattutino 65.44 Km 526 m 02:34:14 25.46 Km\h Giant
24/12/2015 Show to everybody Giro mattutino 88.33 Km 70 m 03:37:06 24.41 Km\h Giant
20/12/2015 Show to everybody Giro mattutino 73.32 Km 57 m 03:07:28 23.47 Km\h Giant
12/12/2015 Show to everybody Giro mattutino 43.47 Km 739 m 02:15:41 19.22 Km\h Giant
07/12/2015 Show to everybody Giro mattutino 91.51 Km 730 m 04:07:36 22.18 Km\h Giant
28/11/2015 Show to everybody Giro mattutino 50.52 Km 835 m 02:35:22 19.51 Km\h Giant
14/11/2015 Show to everybody Giro mattutino 57.96 Km 1046 m 03:00:54 19.22 Km\h Giant
08/11/2015 Show to everybody Giro mattutino 70.44 Km 969 m 03:14:14 21.76 Km\h Giant
07/11/2015 Show to everybody Giro mattutino 73.35 Km 67 m 03:19:47 22.03 Km\h Giant
01/11/2015 Show to everybody Giro mattutino 101.58 Km 136 m 04:06:23 24.74 Km\h Giant
31/10/2015 Show to everybody Giro mattutino 53.76 Km 941 m 02:48:38 19.13 Km\h Giant
17/10/2015 Show to everybody Giro mattutino 97.13 Km 1060 m 04:19:08 22.49 Km\h Giant
11/10/2015 Show to everybody Giro mattutino 58.27 Km 974 m 02:54:19 20.06 Km\h Giant
10/10/2015 Show to everybody Giro mattutino 82.56 Km 100 m 03:44:14 22.09 Km\h Giant
03/10/2015 Show to everybody Giro pomeridiano 77.43 Km 75 m 02:53:05 26.84 Km\h Giant
27/09/2015 Show to everybody Giro mattutino 98.89 Km 91 m 04:05:38 24.16 Km\h Giant
20/09/2015 Show to everybody Giro mattutino 59.02 Km 898 m 03:02:00 19.46 Km\h Giant
19/09/2015 Show to everybody Giro mattutino 128.92 Km 1009 m 05:32:06 23.29 Km\h Giant
15/09/2015 Show to everybody Giro mattutino 63.98 Km 1067 m 03:10:19 20.17 Km\h Giant
12/09/2015 Show to everybody Giro mattutino 162.12 Km 745 m 06:11:49 26.16 Km\h Giant
10/09/2015 Show to everybody Giro mattutino 57.51 Km 858 m 02:58:32 19.33 Km\h Giant
08/09/2015 Show to everybody Giro mattutino 58.53 Km 905 m 02:59:20 19.58 Km\h Giant
06/09/2015 Show to everybody Giro mattutino 79.12 Km 1182 m 03:40:37 21.52 Km\h Giant
04/09/2015 Show to everybody Giro pomeridiano 47.41 Km 220 m 01:54:19 24.88 Km\h Giant
01/09/2015 Show to everybody Giro mattutino 3.66 Km 4 m 00:11:03 19.85 Km\h Giant
01/09/2015 Show to everybody Giro mattutino 108.27 Km 1663 m 00:00:00 0 Km\h Giant
30/08/2015 Show to everybody Giro mattutino 67.63 Km 962 m 03:16:59 20.6 Km\h Giant
30/08/2015 Show to everybody Giro mattutino 68.54 Km 1563 m 03:21:32 20.41 Km\h Giant
22/08/2015 Show to everybody Giro mattutino 89.53 Km 94 m 03:46:10 23.75 Km\h Giant
15/08/2015 Show to everybody 15/08/2015 Milan, Lombardy, Italy 75.3 Km 83 m 03:20:57 22.48 Km\h Giant
02/08/2015 Show to everybody 02/08/2015 Arona, Piemonte, Italy 168.52 Km 636 m 06:17:29 26.79 Km\h Giant
26/07/2015 Show to everybody 26/07/2015 Milan, Lombardy, Italy 101.26 Km 170 m 03:48:13 26.62 Km\h Giant
25/07/2015 Show to everybody 25/07/2015 Monza, Lombardia, Italy 85.54 Km 634 m 03:34:17 23.95 Km\h Giant
20/07/2015 Show to everybody Giro mattutino 90.98 Km 1674 m 04:05:16 22.26 Km\h Giant
18/07/2015 Show to everybody 18/07/2015 Emilia-Romagna, Italy 154.4 Km 1935 m 05:01:47 30.7 Km\h Giant
12/07/2015 Show to everybody 12/07/2015 Villa d`Almè, Lombardia, Italy 103.4 Km 1637 m 05:26:04 19.03 Km\h Giant
09/07/2015 Show to everybody 09/07/2015 Milano, Lombardia, Italy 44.88 Km 30 m 01:45:43 25.47 Km\h Giant
05/07/2015 Show to everybody 05/07/2015 Selvino, Lombardia, Italy 61.05 Km 1328 m 03:47:25 16.11 Km\h Giant
28/06/2015 Show to everybody 28/06/2015 Monza, Lombardia, Italy 50.83 Km 468 m 02:11:15 23.24 Km\h Giant
27/06/2015 Show to everybody 27/06/2015 Milan, Lombardy, Italy 85.59 Km 123 m 03:19:32 25.74 Km\h Giant
25/06/2015 Show to everybody Giro serale 56.29 Km 122 m 02:04:27 27.14 Km\h Giant
21/06/2015 Show to everybody 21/06/2015 Pozza di Fassa, Trentino-Alto Adige, Italy 83.23 Km 2357 m 05:39:15 14.72 Km\h Giant
20/06/2015 Show to everybody 20/06/2015 Pozza di Fassa, Trentino-Alto Adige, Italy 37.67 Km 657 m 02:06:59 17.8 Km\h Giant
01/06/2015 Show to everybody 01/06/2015 Cerredolo, Emilia-Romagna, Italy 2.23 Km 53 m 00:07:49 17.12 Km\h Giant
24/05/2015 Show to everybody 24/05/2015 Cesenatico, Emilia-Romagna, Italy 137.34 Km 2022 m 06:58:14 19.7 Km\h Giant
17/05/2015 Show to everybody Giro mattutino 44.73 Km 1873 m 02:59:11 14.98 Km\h Giant
10/05/2015 Show to everybody Giro mattutino 127.36 Km 349 m 05:26:04 23.44 Km\h Giant
09/05/2015 Show to everybody Giro mattutino 120.19 Km 596 m 04:56:46 24.3 Km\h Giant
02/05/2015 Show to everybody Giro mattutino 105.65 Km 2592 m 05:39:57 18.65 Km\h Giant
01/05/2015 Show to everybody Giro mattutino 112.02 Km 362 m 04:31:02 24.8 Km\h Giant
25/04/2015 Show to everybody Giro mattutino 74.59 Km 1438 m 03:45:32 19.84 Km\h Giant
19/04/2015 Show to everybody Giro mattutino 123.25 Km 369 m 05:04:12 24.31 Km\h Giant
12/04/2015 Show to everybody Giro mattutino 127.9 Km 433 m 05:22:09 23.82 Km\h Giant
06/04/2015 Show to everybody Giro mattutino 84.15 Km 1034 m 03:36:50 23.29 Km\h Giant
29/03/2015 Show to everybody Giro mattutino 96.1 Km 1198 m 04:41:31 20.48 Km\h Giant
28/03/2015 Show to everybody 28/03/2015 Campospinoso, Lombardia, Italy 56.57 Km 786 m 02:47:59 20.2 Km\h Giant
21/03/2015 Show to everybody Giro mattutino 41.92 Km 1031 m 02:15:41 18.54 Km\h Giant
15/03/2015 Show to everybody Giro mattutino 103.48 Km 309 m 04:30:28 22.96 Km\h Giant
14/03/2015 Show to everybody Giro mattutino 48.2 Km 899 m 02:36:52 18.43 Km\h Giant
08/03/2015 Show to everybody Giro mattutino 104.55 Km 327 m 04:11:36 24.93 Km\h Giant
01/03/2015 Show to everybody Giro mattutino 85.29 Km 223 m 03:49:23 22.31 Km\h Giant
28/02/2015 Show to everybody 28/02/2015 Milan, Lombardy, Italy 71.68 Km 78 m 02:43:29 26.31 Km\h Giant
08/02/2015 Show to everybody Giro mattutino 88.44 Km 300 m 03:41:07 24 Km\h Giant
01/02/2015 Show to everybody Giro mattutino con tanto freddo 89.24 Km 334 m 03:57:22 22.56 Km\h Giant
25/01/2015 Show to everybody Giro mattutino 103.54 Km 342 m 04:19:30 23.94 Km\h Giant
18/01/2015 Show to everybody 18/01/2015 Milan, Lombardy, Italy 99.75 Km 103 m 04:04:07 24.52 Km\h Giant
18/01/2015 Show to everybody Giro mattutino 101 Km 326 m 04:10:10 24.22 Km\h Giant
11/01/2015 Show to everybody 11/01/2015 Milan, Lombardy, Italy 102.62 Km 126 m 04:09:07 24.72 Km\h Giant
04/01/2015 Show to everybody 04/01/2015 Milan, Lombardy, Italy 86.15 Km 72 m 03:35:36 23.97 Km\h Giant
03/01/2015 Show to everybody Allenamento 03-01-2015 alle 09:09:10.000 71.73 Km 60 m 03:10:44 22.57 Km\h Giant
31/12/2013 Show to everybody giro 58.93 Km 439 m 02:20:08 25.23 Km\h Giant
31/12/2013 Show to everybody gr 58.93 Km 440 m 02:20:08 25.23 Km\h Giant
31/12/2013 Show to everybody giro 58.93 Km 439 m 02:20:08 25.23 Km\h Giant
28/12/2013 Show to everybody giro 68.1 Km 278 m 03:05:40 22.01 Km\h Giant
01/11/2013 Show to everybody giro 74.44 Km 792 m 03:42:13 20.1 Km\h Giant

Show previous years trainings
This user's bikes.
Giant 421 36151.61 Km 288389 m 838:59:59 22.72 Km/h

370 points
Kilometers
0
Vertical gain
0
Rank:43

Watch ranking »

 

Bike name

Delete this bike?

Now you follow this users and you can compare your trainings

If you stop following this users you will not be able to compare your trainings with his


bdc-forum.it | 2012-2019 Training Camp v.1.0.15